Airfield :
LOGIN :

Register | Disclaimer

   EN    FR    IT 

 










Legend :    VFR   Marginal VFR   IFR   Intensive IFR   Very Intensive IFR
Visi :
Ceiling :
>= 8 km
>= 3000ft
5 to 8 km
1000 to 3000 ft
1500m to 5 km
500 to 1000 ft
800 to 1500m
200 to 500 ft
< 800m
< 200 ft
Symbols :   Thunderstorms  Fog  Heavy snow  Heavy precipitations  Wind > 20 kt
SIGMETs :     Misc.  Thunderstorms  Icing  Turbulence  Mountain Waves  Volcanic Ashes






- Airport Elevation : 856 ft
- IATA code : VGO


LEVX - Vigo Peinador

CURRENT METAR :
  • 152130Z 20013KT 9999 SCT020 BKN040 BKN050 14/13 Q1018 TEMPO 3000 -RA BKN010

EXPIRED METARs :
  • 152100Z 19012KT 150V220 9999 FEW020 OVC046 14/13 Q1018 TEMPO 3000 -RA BKN010
  • 152030Z 20011KT 160V220 9999 FEW016 SCT040 OVC050 14/13 Q1018 TEMPO 3000 -RA BKN010
  • 152000Z 19009KT 9999 SCT018 BKN048 14/13 Q1018 TEMPO 3000 -RA BKN010
  • 151930Z 19009KT 140V220 8000 SCT023 BKN046 14/13 Q1018 NOSIG
  • 151900Z 19009KT 8000 FEW020 SCT042 14/13 Q1018 NOSIG

TAF TAF LEVX
Valid from the 15 at 18:00 until the 16 at 18:00 UTC


151700Z 1518/1618 19009KT 9999 SCT020 BKN040 TX16/1614Z TN13/1606Z
TEMPO 1609/1618 20015G28KT
PROB40
TEMPO 1518/1524 1500 -RA BCFG BKN005 BKN010
PROB30
TEMPO 1518/1524 0600 -RA BCFG BKN003
TEMPO 1600/1618 3000 RA BR BKN010
PROB40
TEMPO 1612/1618 1500 +RA BCFG BKN005 BKN010
PROB40
TEMPO 1600/1612 1500 RA BCFG BKN005
PROB40
TEMPO 1600/1609 0350 RA BCFG BKN002



MET'MAP, your aeronautical weather chart ! - Copyright ORBIFLY December 2007 - Disclaimer

ORBIFLY MET'MAP TEAM :

Programming & Development : Alexandra Zaïnal
Concept & Development : Baudouin d'Aumeries
Co-Development & Prog : Marc-Olivier Méhu
Technical & hardware support : Manuel Goepfert

Contact : metmap@orbifly.com




SOURCES & CREDITS :

   NOAA